sensor_id;sensor_type;location;lat;lon;timestamp;P1;durP1;ratioP1;P2;durP2;ratioP2
50519;SDS011;36468;44.098;3.078;2023-03-01T00:01:24;15.98;;;9.40;;
50519;SDS011;36468;44.098;3.078;2023-03-01T00:03:50;15.40;;;8.98;;
50519;SDS011;36468;44.098;3.078;2023-03-01T00:06:17;17.58;;;10.07;;
50519;SDS011;36468;44.098;3.078;2023-03-01T00:08:43;16.27;;;9.02;;
50519;SDS011;36468;44.098;3.078;2023-03-01T00:11:13;12.93;;;8.50;;
50519;SDS011;36468;44.098;3.078;2023-03-01T00:13:40;14.10;;;8.63;;
50519;SDS011;36468;44.098;3.078;2023-03-01T00:16:07;16.38;;;9.18;;
50519;SDS011;36468;44.098;3.078;2023-03-01T00:18:33;17.48;;;8.68;;
50519;SDS011;36468;44.098;3.078;2023-03-01T00:20:59;12.88;;;8.13;;
50519;SDS011;36468;44.098;3.078;2023-03-01T00:23:26;15.00;;;8.63;;
50519;SDS011;36468;44.098;3.078;2023-03-01T00:25:52;14.60;;;8.88;;
50519;SDS011;36468;44.098;3.078;2023-03-01T00:28:18;14.68;;;7.68;;
50519;SDS011;36468;44.098;3.078;2023-03-01T00:30:45;13.55;;;8.50;;
50519;SDS011;36468;44.098;3.078;2023-03-01T00:33:11;14.88;;;8.23;;
50519;SDS011;36468;44.098;3.078;2023-03-01T00:35:37;13.85;;;8.98;;
50519;SDS011;36468;44.098;3.078;2023-03-01T00:38:03;15.00;;;8.70;;
50519;SDS011;36468;44.098;3.078;2023-03-01T00:40:30;14.25;;;8.50;;
50519;SDS011;36468;44.098;3.078;2023-03-01T00:42:57;14.90;;;8.80;;
50519;SDS011;36468;44.098;3.078;2023-03-01T00:45:23;13.60;;;8.80;;
50519;SDS011;36468;44.098;3.078;2023-03-01T00:47:50;13.35;;;8.68;;
50519;SDS011;36468;44.098;3.078;2023-03-01T00:50:16;15.20;;;8.82;;
50519;SDS011;36468;44.098;3.078;2023-03-01T00:52:42;15.95;;;8.82;;
50519;SDS011;36468;44.098;3.078;2023-03-01T00:55:08;14.70;;;9.02;;
50519;SDS011;36468;44.098;3.078;2023-03-01T00:57:34;16.02;;;9.27;;
50519;SDS011;36468;44.098;3.078;2023-03-01T01:00:00;15.93;;;9.40;;
50519;SDS011;36468;44.098;3.078;2023-03-01T01:02:28;16.83;;;10.32;;
50519;SDS011;36468;44.098;3.078;2023-03-01T01:04:54;15.82;;;9.65;;
50519;SDS011;36468;44.098;3.078;2023-03-01T01:07:20;16.88;;;9.95;;
50519;SDS011;36468;44.098;3.078;2023-03-01T01:09:46;18.67;;;10.32;;
50519;SDS011;36468;44.098;3.078;2023-03-01T01:12:12;21.70;;;12.25;;
50519;SDS011;36468;44.098;3.078;2023-03-01T01:14:38;21.85;;;11.15;;
50519;SDS011;36468;44.098;3.078;2023-03-01T01:17:04;20.95;;;10.07;;
50519;SDS011;36468;44.098;3.078;2023-03-01T01:19:30;15.63;;;9.63;;
50519;SDS011;36468;44.098;3.078;2023-03-01T01:21:56;17.30;;;10.38;;
50519;SDS011;36468;44.098;3.078;2023-03-01T01:24:22;15.88;;;9.88;;
50519;SDS011;36468;44.098;3.078;2023-03-01T01:26:48;16.85;;;9.65;;
50519;SDS011;36468;44.098;3.078;2023-03-01T01:29:15;16.50;;;9.00;;
50519;SDS011;36468;44.098;3.078;2023-03-01T01:31:41;15.48;;;9.40;;
50519;SDS011;36468;44.098;3.078;2023-03-01T01:34:09;13.95;;;8.55;;
50519;SDS011;36468;44.098;3.078;2023-03-01T01:36:38;14.63;;;9.02;;
50519;SDS011;36468;44.098;3.078;2023-03-01T01:39:04;16.50;;;9.40;;
50519;SDS011;36468;44.098;3.078;2023-03-01T01:41:30;14.63;;;8.35;;
50519;SDS011;36468;44.098;3.078;2023-03-01T01:44:13;15.23;;;9.13;;
50519;SDS011;36468;44.098;3.078;2023-03-01T01:49:19;17.10;;;9.05;;
50519;SDS011;36468;44.098;3.078;2023-03-01T01:51:47;17.30;;;9.30;;
50519;SDS011;36468;44.098;3.078;2023-03-01T01:54:28;15.63;;;9.30;;
50519;SDS011;36468;44.098;3.078;2023-03-01T01:56:56;15.57;;;9.23;;
50519;SDS011;36468;44.098;3.078;2023-03-01T01:59:23;16.27;;;8.98;;
50519;SDS011;36468;44.098;3.078;2023-03-01T02:01:51;16.33;;;9.73;;
50519;SDS011;36468;44.098;3.078;2023-03-01T02:04:17;14.20;;;8.43;;
50519;SDS011;36468;44.098;3.078;2023-03-01T02:06:46;15.55;;;8.35;;
50519;SDS011;36468;44.098;3.078;2023-03-01T02:09:16;16.48;;;8.90;;
50519;SDS011;36468;44.098;3.078;2023-03-01T02:11:43;14.40;;;8.68;;
50519;SDS011;36468;44.098;3.078;2023-03-01T02:14:09;13.98;;;8.10;;
50519;SDS011;36468;44.098;3.078;2023-03-01T02:16:35;12.88;;;8.43;;
50519;SDS011;36468;44.098;3.078;2023-03-01T02:19:01;14.50;;;8.00;;
50519;SDS011;36468;44.098;3.078;2023-03-01T02:24:54;15.63;;;8.40;;
50519;SDS011;36468;44.098;3.078;2023-03-01T02:26:54;15.60;;;8.27;;
50519;SDS011;36468;44.098;3.078;2023-03-01T02:29:21;14.02;;;7.80;;
50519;SDS011;36468;44.098;3.078;2023-03-01T02:31:48;14.30;;;8.05;;
50519;SDS011;36468;44.098;3.078;2023-03-01T02:34:17;14.52;;;8.57;;
50519;SDS011;36468;44.098;3.078;2023-03-01T02:37:03;12.35;;;8.00;;
50519;SDS011;36468;44.098;3.078;2023-03-01T02:39:52;12.13;;;7.50;;
50519;SDS011;36468;44.098;3.078;2023-03-01T02:42:20;14.13;;;8.43;;
50519;SDS011;36468;44.098;3.078;2023-03-01T02:44:48;15.30;;;9.20;;
50519;SDS011;36468;44.098;3.078;2023-03-01T02:47:15;15.73;;;8.80;;
50519;SDS011;36468;44.098;3.078;2023-03-01T02:49:41;14.13;;;8.93;;
50519;SDS011;36468;44.098;3.078;2023-03-01T02:57:24;20.63;;;9.70;;
50519;SDS011;36468;44.098;3.078;2023-03-01T02:59:52;16.83;;;9.68;;
50519;SDS011;36468;44.098;3.078;2023-03-01T03:02:26;12.10;;;7.97;;
50519;SDS011;36468;44.098;3.078;2023-03-01T03:05:03;11.20;;;7.90;;
50519;SDS011;36468;44.098;3.078;2023-03-01T03:07:31;14.15;;;8.43;;
50519;SDS011;36468;44.098;3.078;2023-03-01T03:09:58;11.75;;;7.90;;
50519;SDS011;36468;44.098;3.078;2023-03-01T03:12:24;13.73;;;8.15;;
50519;SDS011;36468;44.098;3.078;2023-03-01T03:14:50;12.90;;;8.55;;
50519;SDS011;36468;44.098;3.078;2023-03-01T03:17:16;16.65;;;9.10;;
50519;SDS011;36468;44.098;3.078;2023-03-01T03:19:42;16.98;;;9.90;;
50519;SDS011;36468;44.098;3.078;2023-03-01T03:22:10;16.52;;;8.55;;
50519;SDS011;36468;44.098;3.078;2023-03-01T03:24:36;22.23;;;11.80;;
50519;SDS011;36468;44.098;3.078;2023-03-01T03:27:03;19.48;;;9.85;;
50519;SDS011;36468;44.098;3.078;2023-03-01T03:29:29;16.60;;;9.32;;
50519;SDS011;36468;44.098;3.078;2023-03-01T03:31:55;26.98;;;11.98;;
50519;SDS011;36468;44.098;3.078;2023-03-01T03:34:21;22.33;;;10.77;;
50519;SDS011;36468;44.098;3.078;2023-03-01T03:36:48;22.95;;;11.30;;
50519;SDS011;36468;44.098;3.078;2023-03-01T03:39:14;17.98;;;9.95;;
50519;SDS011;36468;44.098;3.078;2023-03-01T03:41:40;24.00;;;10.80;;
50519;SDS011;36468;44.098;3.078;2023-03-01T03:44:06;19.00;;;9.55;;
50519;SDS011;36468;44.098;3.078;2023-03-01T03:46:32;14.07;;;8.35;;
50519;SDS011;36468;44.098;3.078;2023-03-01T03:48:58;13.82;;;8.30;;
50519;SDS011;36468;44.098;3.078;2023-03-01T03:51:24;14.32;;;8.48;;
50519;SDS011;36468;44.098;3.078;2023-03-01T03:53:50;19.48;;;9.93;;
50519;SDS011;36468;44.098;3.078;2023-03-01T03:56:16;18.25;;;9.80;;
50519;SDS011;36468;44.098;3.078;2023-03-01T03:58:42;16.10;;;9.35;;
50519;SDS011;36468;44.098;3.078;2023-03-01T04:01:08;15.75;;;9.63;;
50519;SDS011;36468;44.098;3.078;2023-03-01T04:03:34;13.35;;;8.73;;
50519;SDS011;36468;44.098;3.078;2023-03-01T04:06:00;14.10;;;8.98;;
50519;SDS011;36468;44.098;3.078;2023-03-01T04:08:27;16.40;;;9.48;;
50519;SDS011;36468;44.098;3.078;2023-03-01T04:10:57;14.07;;;8.70;;
50519;SDS011;36468;44.098;3.078;2023-03-01T04:13:23;14.50;;;9.50;;
50519;SDS011;36468;44.098;3.078;2023-03-01T04:15:53;13.38;;;8.27;;
50519;SDS011;36468;44.098;3.078;2023-03-01T04:18:20;16.85;;;8.73;;
50519;SDS011;36468;44.098;3.078;2023-03-01T04:20:47;14.82;;;8.43;;
50519;SDS011;36468;44.098;3.078;2023-03-01T04:23:14;12.13;;;8.02;;
50519;SDS011;36468;44.098;3.078;2023-03-01T04:25:51;13.77;;;8.38;;
50519;SDS011;36468;44.098;3.078;2023-03-01T04:30:46;15.57;;;8.75;;
50519;SDS011;36468;44.098;3.078;2023-03-01T04:33:12;13.68;;;9.15;;
50519;SDS011;36468;44.098;3.078;2023-03-01T04:35:38;12.25;;;8.40;;
50519;SDS011;36468;44.098;3.078;2023-03-01T04:38:05;14.20;;;8.77;;
50519;SDS011;36468;44.098;3.078;2023-03-01T04:40:31;14.23;;;8.98;;
50519;SDS011;36468;44.098;3.078;2023-03-01T04:42:58;15.40;;;8.63;;
50519;SDS011;36468;44.098;3.078;2023-03-01T04:45:24;17.70;;;9.30;;
50519;SDS011;36468;44.098;3.078;2023-03-01T04:47:50;15.38;;;9.45;;
50519;SDS011;36468;44.098;3.078;2023-03-01T04:50:17;12.82;;;8.48;;
50519;SDS011;36468;44.098;3.078;2023-03-01T04:52:45;13.45;;;8.95;;
50519;SDS011;36468;44.098;3.078;2023-03-01T04:55:11;13.65;;;8.77;;
50519;SDS011;36468;44.098;3.078;2023-03-01T04:57:37;14.65;;;9.43;;
50519;SDS011;36468;44.098;3.078;2023-03-01T05:00:04;16.13;;;9.93;;
50519;SDS011;36468;44.098;3.078;2023-03-01T05:02:45;15.82;;;9.73;;
50519;SDS011;36468;44.098;3.078;2023-03-01T05:05:11;16.83;;;10.07;;
50519;SDS011;36468;44.098;3.078;2023-03-01T05:07:38;14.52;;;9.23;;
50519;SDS011;36468;44.098;3.078;2023-03-01T05:10:04;15.52;;;9.38;;
50519;SDS011;36468;44.098;3.078;2023-03-01T05:12:30;14.00;;;9.15;;
50519;SDS011;36468;44.098;3.078;2023-03-01T05:14:56;13.48;;;8.63;;
50519;SDS011;36468;44.098;3.078;2023-03-01T05:17:23;12.70;;;8.60;;
50519;SDS011;36468;44.098;3.078;2023-03-01T05:19:49;17.50;;;9.40;;
50519;SDS011;36468;44.098;3.078;2023-03-01T05:22:15;14.35;;;8.98;;
50519;SDS011;36468;44.098;3.078;2023-03-01T05:24:41;14.25;;;9.35;;
50519;SDS011;36468;44.098;3.078;2023-03-01T05:27:07;17.80;;;8.73;;
50519;SDS011;36468;44.098;3.078;2023-03-01T05:29:33;13.88;;;9.20;;
50519;SDS011;36468;44.098;3.078;2023-03-01T05:32:00;15.07;;;9.18;;
50519;SDS011;36468;44.098;3.078;2023-03-01T05:34:28;14.20;;;9.20;;
50519;SDS011;36468;44.098;3.078;2023-03-01T05:36:55;17.30;;;10.02;;
50519;SDS011;36468;44.098;3.078;2023-03-01T05:39:22;18.88;;;9.98;;
50519;SDS011;36468;44.098;3.078;2023-03-01T05:41:51;20.25;;;10.45;;
50519;SDS011;36468;44.098;3.078;2023-03-01T05:44:17;18.38;;;10.00;;
50519;SDS011;36468;44.098;3.078;2023-03-01T05:46:43;15.45;;;9.75;;
50519;SDS011;36468;44.098;3.078;2023-03-01T05:49:10;13.95;;;8.40;;
50519;SDS011;36468;44.098;3.078;2023-03-01T05:51:38;14.55;;;9.65;;
50519;SDS011;36468;44.098;3.078;2023-03-01T05:54:04;18.27;;;10.45;;
50519;SDS011;36468;44.098;3.078;2023-03-01T05:56:32;16.00;;;10.52;;
50519;SDS011;36468;44.098;3.078;2023-03-01T05:58:58;18.23;;;10.43;;
50519;SDS011;36468;44.098;3.078;2023-03-01T06:01:25;17.33;;;10.20;;
50519;SDS011;36468;44.098;3.078;2023-03-01T06:03:51;21.73;;;10.40;;
50519;SDS011;36468;44.098;3.078;2023-03-01T06:06:17;15.32;;;9.45;;
50519;SDS011;36468;44.098;3.078;2023-03-01T06:08:43;17.40;;;10.35;;
50519;SDS011;36468;44.098;3.078;2023-03-01T06:11:09;16.67;;;9.80;;
50519;SDS011;36468;44.098;3.078;2023-03-01T06:13:35;16.55;;;10.20;;
50519;SDS011;36468;44.098;3.078;2023-03-01T06:16:04;12.90;;;9.13;;
50519;SDS011;36468;44.098;3.078;2023-03-01T06:18:30;14.57;;;9.80;;
50519;SDS011;36468;44.098;3.078;2023-03-01T06:20:56;18.05;;;10.77;;
50519;SDS011;36468;44.098;3.078;2023-03-01T06:23:23;18.13;;;10.82;;
50519;SDS011;36468;44.098;3.078;2023-03-01T06:25:49;16.65;;;10.40;;
50519;SDS011;36468;44.098;3.078;2023-03-01T06:28:15;15.98;;;10.05;;
50519;SDS011;36468;44.098;3.078;2023-03-01T06:30:41;16.83;;;11.15;;
50519;SDS011;36468;44.098;3.078;2023-03-01T06:33:08;17.52;;;10.75;;
50519;SDS011;36468;44.098;3.078;2023-03-01T06:35:34;15.63;;;10.40;;
50519;SDS011;36468;44.098;3.078;2023-03-01T06:38:01;17.30;;;9.90;;
50519;SDS011;36468;44.098;3.078;2023-03-01T06:40:27;16.08;;;10.70;;
50519;SDS011;36468;44.098;3.078;2023-03-01T06:42:53;17.35;;;10.30;;
50519;SDS011;36468;44.098;3.078;2023-03-01T06:45:20;16.15;;;10.80;;
50519;SDS011;36468;44.098;3.078;2023-03-01T06:47:46;15.32;;;9.73;;
50519;SDS011;36468;44.098;3.078;2023-03-01T06:50:13;19.98;;;11.02;;
50519;SDS011;36468;44.098;3.078;2023-03-01T06:52:40;19.17;;;9.55;;
50519;SDS011;36468;44.098;3.078;2023-03-01T06:55:06;21.30;;;10.38;;
50519;SDS011;36468;44.098;3.078;2023-03-01T06:57:32;19.60;;;10.60;;
50519;SDS011;36468;44.098;3.078;2023-03-01T06:59:58;22.13;;;10.75;;
50519;SDS011;36468;44.098;3.078;2023-03-01T07:02:24;33.55;;;12.93;;
50519;SDS011;36468;44.098;3.078;2023-03-01T07:04:51;23.98;;;11.20;;
50519;SDS011;36468;44.098;3.078;2023-03-01T07:07:17;24.65;;;11.70;;
50519;SDS011;36468;44.098;3.078;2023-03-01T07:09:44;23.27;;;11.10;;
50519;SDS011;36468;44.098;3.078;2023-03-01T07:12:10;23.35;;;11.10;;
50519;SDS011;36468;44.098;3.078;2023-03-01T07:14:37;22.70;;;11.13;;
50519;SDS011;36468;44.098;3.078;2023-03-01T07:17:03;24.25;;;11.82;;
50519;SDS011;36468;44.098;3.078;2023-03-01T07:19:29;18.73;;;10.98;;
50519;SDS011;36468;44.098;3.078;2023-03-01T07:21:55;22.90;;;11.43;;
50519;SDS011;36468;44.098;3.078;2023-03-01T07:24:21;29.67;;;12.40;;
50519;SDS011;36468;44.098;3.078;2023-03-01T07:26:51;25.80;;;13.30;;
50519;SDS011;36468;44.098;3.078;2023-03-01T07:29:18;24.77;;;11.73;;
50519;SDS011;36468;44.098;3.078;2023-03-01T07:31:44;24.75;;;11.20;;
50519;SDS011;36468;44.098;3.078;2023-03-01T07:34:10;19.70;;;11.35;;
50519;SDS011;36468;44.098;3.078;2023-03-01T07:36:37;19.77;;;11.52;;
50519;SDS011;36468;44.098;3.078;2023-03-01T07:39:04;20.50;;;12.07;;
50519;SDS011;36468;44.098;3.078;2023-03-01T07:41:30;29.90;;;11.88;;
50519;SDS011;36468;44.098;3.078;2023-03-01T07:43:56;16.30;;;10.10;;
50519;SDS011;36468;44.098;3.078;2023-03-01T07:46:22;18.58;;;9.27;;
50519;SDS011;36468;44.098;3.078;2023-03-01T07:48:48;18.08;;;9.32;;
50519;SDS011;36468;44.098;3.078;2023-03-01T07:51:14;12.98;;;8.55;;
50519;SDS011;36468;44.098;3.078;2023-03-01T07:53:40;12.68;;;8.35;;
50519;SDS011;36468;44.098;3.078;2023-03-01T07:56:10;15.25;;;9.30;;
50519;SDS011;36468;44.098;3.078;2023-03-01T07:58:37;15.95;;;9.40;;
50519;SDS011;36468;44.098;3.078;2023-03-01T08:01:04;16.02;;;10.00;;
50519;SDS011;36468;44.098;3.078;2023-03-01T08:03:31;16.98;;;10.20;;
50519;SDS011;36468;44.098;3.078;2023-03-01T08:05:59;15.00;;;9.13;;
50519;SDS011;36468;44.098;3.078;2023-03-01T08:08:25;17.27;;;10.25;;
50519;SDS011;36468;44.098;3.078;2023-03-01T08:10:51;19.25;;;10.07;;
50519;SDS011;36468;44.098;3.078;2023-03-01T08:13:17;14.05;;;9.40;;
50519;SDS011;36468;44.098;3.078;2023-03-01T08:15:47;14.43;;;9.00;;
50519;SDS011;36468;44.098;3.078;2023-03-01T08:18:14;13.52;;;8.45;;
50519;SDS011;36468;44.098;3.078;2023-03-01T08:20:40;12.98;;;8.32;;
50519;SDS011;36468;44.098;3.078;2023-03-01T08:23:06;13.45;;;8.23;;
50519;SDS011;36468;44.098;3.078;2023-03-01T08:25:32;11.98;;;8.32;;
50519;SDS011;36468;44.098;3.078;2023-03-01T08:27:58;12.98;;;8.07;;
50519;SDS011;36468;44.098;3.078;2023-03-01T08:30:24;12.32;;;7.90;;
50519;SDS011;36468;44.098;3.078;2023-03-01T08:32:50;11.35;;;7.82;;
50519;SDS011;36468;44.098;3.078;2023-03-01T08:35:16;16.30;;;8.18;;
50519;SDS011;36468;44.098;3.078;2023-03-01T08:37:42;14.40;;;8.43;;
50519;SDS011;36468;44.098;3.078;2023-03-01T08:40:09;14.80;;;7.90;;
50519;SDS011;36468;44.098;3.078;2023-03-01T08:42:35;17.83;;;7.10;;
50519;SDS011;36468;44.098;3.078;2023-03-01T08:45:02;12.10;;;7.78;;
50519;SDS011;36468;44.098;3.078;2023-03-01T08:47:28;11.93;;;8.25;;
50519;SDS011;36468;44.098;3.078;2023-03-01T08:49:54;13.23;;;7.72;;
50519;SDS011;36468;44.098;3.078;2023-03-01T08:52:20;14.43;;;7.85;;
50519;SDS011;36468;44.098;3.078;2023-03-01T08:54:47;10.93;;;7.20;;
50519;SDS011;36468;44.098;3.078;2023-03-01T08:57:14;9.30;;;7.18;;
50519;SDS011;36468;44.098;3.078;2023-03-01T08:59:40;10.38;;;6.90;;
50519;SDS011;36468;44.098;3.078;2023-03-01T09:02:10;10.20;;;6.97;;
50519;SDS011;36468;44.098;3.078;2023-03-01T09:04:37;9.60;;;7.07;;
50519;SDS011;36468;44.098;3.078;2023-03-01T09:07:03;12.98;;;6.30;;
50519;SDS011;36468;44.098;3.078;2023-03-01T09:09:30;8.65;;;6.65;;
50519;SDS011;36468;44.098;3.078;2023-03-01T09:11:56;8.73;;;6.38;;
50519;SDS011;36468;44.098;3.078;2023-03-01T09:14:22;10.88;;;6.45;;
50519;SDS011;36468;44.098;3.078;2023-03-01T09:16:48;12.23;;;6.70;;
50519;SDS011;36468;44.098;3.078;2023-03-01T09:19:14;7.93;;;5.72;;
50519;SDS011;36468;44.098;3.078;2023-03-01T09:21:40;16.13;;;10.18;;
50519;SDS011;36468;44.098;3.078;2023-03-01T09:24:08;10.85;;;7.55;;
50519;SDS011;36468;44.098;3.078;2023-03-01T09:26:38;10.57;;;7.53;;
50519;SDS011;36468;44.098;3.078;2023-03-01T09:29:04;11.45;;;6.97;;
50519;SDS011;36468;44.098;3.078;2023-03-01T09:31:30;8.32;;;6.53;;
50519;SDS011;36468;44.098;3.078;2023-03-01T09:33:56;8.05;;;6.70;;
50519;SDS011;36468;44.098;3.078;2023-03-01T09:36:23;9.38;;;6.32;;
50519;SDS011;36468;44.098;3.078;2023-03-01T09:38:50;8.00;;;6.10;;
50519;SDS011;36468;44.098;3.078;2023-03-01T09:41:23;10.23;;;6.53;;
50519;SDS011;36468;44.098;3.078;2023-03-01T09:44:02;9.00;;;6.60;;
50519;SDS011;36468;44.098;3.078;2023-03-01T09:46:29;7.32;;;5.97;;
50519;SDS011;36468;44.098;3.078;2023-03-01T09:48:59;8.00;;;5.88;;
50519;SDS011;36468;44.098;3.078;2023-03-01T09:51:31;8.80;;;6.20;;
50519;SDS011;36468;44.098;3.078;2023-03-01T09:53:58;8.63;;;6.13;;
50519;SDS011;36468;44.098;3.078;2023-03-01T09:59:06;11.65;;;6.18;;
50519;SDS011;36468;44.098;3.078;2023-03-01T10:06:35;13.20;;;6.10;;
50519;SDS011;36468;44.098;3.078;2023-03-01T10:09:10;7.15;;;5.82;;
50519;SDS011;36468;44.098;3.078;2023-03-01T10:11:39;11.32;;;6.40;;
50519;SDS011;36468;44.098;3.078;2023-03-01T10:16:53;9.10;;;5.85;;
50519;SDS011;36468;44.098;3.078;2023-03-01T10:19:24;8.27;;;5.75;;
50519;SDS011;36468;44.098;3.078;2023-03-01T10:21:51;8.45;;;5.70;;
50519;SDS011;36468;44.098;3.078;2023-03-01T10:24:18;7.32;;;5.50;;
50519;SDS011;36468;44.098;3.078;2023-03-01T10:29:15;7.40;;;6.07;;
50519;SDS011;36468;44.098;3.078;2023-03-01T10:31:48;7.30;;;5.45;;
50519;SDS011;36468;44.098;3.078;2023-03-01T10:34:19;7.35;;;6.05;;
50519;SDS011;36468;44.098;3.078;2023-03-01T10:36:49;8.60;;;5.43;;
50519;SDS011;36468;44.098;3.078;2023-03-01T10:39:23;7.63;;;5.68;;
50519;SDS011;36468;44.098;3.078;2023-03-01T10:47:00;8.65;;;5.80;;
50519;SDS011;36468;44.098;3.078;2023-03-01T10:49:26;8.43;;;5.63;;
50519;SDS011;36468;44.098;3.078;2023-03-01T10:51:53;7.70;;;5.45;;
50519;SDS011;36468;44.098;3.078;2023-03-01T10:56:49;6.85;;;5.50;;
50519;SDS011;36468;44.098;3.078;2023-03-01T10:59:30;6.60;;;4.65;;
50519;SDS011;36468;44.098;3.078;2023-03-01T11:02:39;8.57;;;6.75;;
50519;SDS011;36468;44.098;3.078;2023-03-01T11:04:59;7.95;;;5.53;;
50519;SDS011;36468;44.098;3.078;2023-03-01T11:07:26;6.78;;;5.75;;
50519;SDS011;36468;44.098;3.078;2023-03-01T11:09:52;7.68;;;5.47;;
50519;SDS011;36468;44.098;3.078;2023-03-01T11:12:20;8.57;;;5.70;;
50519;SDS011;36468;44.098;3.078;2023-03-01T11:14:53;6.82;;;5.47;;
50519;SDS011;36468;44.098;3.078;2023-03-01T11:17:29;7.03;;;5.68;;
50519;SDS011;36468;44.098;3.078;2023-03-01T11:22:42;6.65;;;5.20;;
50519;SDS011;36468;44.098;3.078;2023-03-01T11:25:11;8.35;;;5.53;;
50519;SDS011;36468;44.098;3.078;2023-03-01T11:27:43;7.68;;;5.70;;
50519;SDS011;36468;44.098;3.078;2023-03-01T11:35:34;9.88;;;5.82;;
50519;SDS011;36468;44.098;3.078;2023-03-01T11:38:22;7.60;;;5.45;;
50519;SDS011;36468;44.098;3.078;2023-03-01T11:50:52;6.80;;;5.57;;
50519;SDS011;36468;44.098;3.078;2023-03-01T11:55:59;7.32;;;4.95;;
50519;SDS011;36468;44.098;3.078;2023-03-01T11:58:28;7.22;;;5.50;;
50519;SDS011;36468;44.098;3.078;2023-03-01T12:08:36;6.03;;;4.88;;
50519;SDS011;36468;44.098;3.078;2023-03-01T12:16:21;8.38;;;5.63;;
50519;SDS011;36468;44.098;3.078;2023-03-01T12:42:04;10.23;;;5.65;;
50519;SDS011;36468;44.098;3.078;2023-03-01T12:47:05;10.18;;;5.85;;
50519;SDS011;36468;44.098;3.078;2023-03-01T12:49:38;9.05;;;5.50;;
50519;SDS011;36468;44.098;3.078;2023-03-01T12:54:51;10.88;;;6.40;;
50519;SDS011;36468;44.098;3.078;2023-03-01T12:57:26;9.48;;;5.63;;
50519;SDS011;36468;44.098;3.078;2023-03-01T13:03:36;8.77;;;5.65;;
50519;SDS011;36468;44.098;3.078;2023-03-01T13:08:22;8.93;;;5.85;;
50519;SDS011;36468;44.098;3.078;2023-03-01T13:10:54;7.65;;;5.85;;
50519;SDS011;36468;44.098;3.078;2023-03-01T13:13:26;12.57;;;6.38;;
50519;SDS011;36468;44.098;3.078;2023-03-01T13:15:52;8.98;;;5.97;;
50519;SDS011;36468;44.098;3.078;2023-03-01T13:20:48;9.88;;;5.65;;
50519;SDS011;36468;44.098;3.078;2023-03-01T13:31:02;9.43;;;6.60;;
50519;SDS011;36468;44.098;3.078;2023-03-01T13:35:59;8.93;;;6.70;;
50519;SDS011;36468;44.098;3.078;2023-03-01T13:41:11;9.55;;;6.40;;
50519;SDS011;36468;44.098;3.078;2023-03-01T13:43:40;8.48;;;6.13;;
50519;SDS011;36468;44.098;3.078;2023-03-01T13:46:09;8.50;;;6.07;;
50519;SDS011;36468;44.098;3.078;2023-03-01T13:48:36;10.48;;;6.78;;
50519;SDS011;36468;44.098;3.078;2023-03-01T13:51:03;10.18;;;6.82;;
50519;SDS011;36468;44.098;3.078;2023-03-01T13:53:31;11.18;;;6.97;;
50519;SDS011;36468;44.098;3.078;2023-03-01T13:56:03;9.25;;;6.80;;
50519;SDS011;36468;44.098;3.078;2023-03-01T13:58:33;12.73;;;7.30;;
50519;SDS011;36468;44.098;3.078;2023-03-01T14:01:29;11.30;;;7.25;;
50519;SDS011;36468;44.098;3.078;2023-03-01T14:03:56;11.60;;;6.65;;
50519;SDS011;36468;44.098;3.078;2023-03-01T14:06:26;9.18;;;6.50;;
50519;SDS011;36468;44.098;3.078;2023-03-01T14:19:36;11.43;;;8.10;;
50519;SDS011;36468;44.098;3.078;2023-03-01T14:24:31;9.63;;;7.32;;
50519;SDS011;36468;44.098;3.078;2023-03-01T14:27:02;12.43;;;7.97;;
50519;SDS011;36468;44.098;3.078;2023-03-01T14:29:36;19.33;;;7.65;;
50519;SDS011;36468;44.098;3.078;2023-03-01T14:32:19;10.93;;;7.78;;
50519;SDS011;36468;44.098;3.078;2023-03-01T14:34:49;13.45;;;7.20;;
50519;SDS011;36468;44.098;3.078;2023-03-01T14:39:41;8.82;;;6.97;;
50519;SDS011;36468;44.098;3.078;2023-03-01T14:42:07;10.45;;;7.35;;
50519;SDS011;36468;44.098;3.078;2023-03-01T14:44:33;9.80;;;6.57;;
50519;SDS011;36468;44.098;3.078;2023-03-01T14:47:02;8.93;;;6.43;;
50519;SDS011;36468;44.098;3.078;2023-03-01T14:49:29;9.65;;;6.60;;
50519;SDS011;36468;44.098;3.078;2023-03-01T14:52:02;9.43;;;6.22;;
50519;SDS011;36468;44.098;3.078;2023-03-01T14:54:43;11.48;;;6.95;;
50519;SDS011;36468;44.098;3.078;2023-03-01T14:57:20;9.70;;;6.95;;
50519;SDS011;36468;44.098;3.078;2023-03-01T14:59:47;10.13;;;7.05;;
50519;SDS011;36468;44.098;3.078;2023-03-01T15:02:16;9.25;;;7.20;;
50519;SDS011;36468;44.098;3.078;2023-03-01T15:04:49;13.65;;;7.72;;
50519;SDS011;36468;44.098;3.078;2023-03-01T15:07:16;12.82;;;7.78;;
50519;SDS011;36468;44.098;3.078;2023-03-01T15:09:42;11.55;;;7.55;;
50519;SDS011;36468;44.098;3.078;2023-03-01T15:14:53;13.43;;;7.05;;
50519;SDS011;36468;44.098;3.078;2023-03-01T15:19:51;11.57;;;7.55;;
50519;SDS011;36468;44.098;3.078;2023-03-01T15:22:18;11.38;;;7.78;;
50519;SDS011;36468;44.098;3.078;2023-03-01T15:24:50;12.73;;;7.93;;
50519;SDS011;36468;44.098;3.078;2023-03-01T15:27:17;13.40;;;8.57;;
50519;SDS011;36468;44.098;3.078;2023-03-01T15:29:50;13.27;;;7.78;;
50519;SDS011;36468;44.098;3.078;2023-03-01T15:32:30;17.05;;;8.32;;
50519;SDS011;36468;44.098;3.078;2023-03-01T15:34:57;14.82;;;7.85;;
50519;SDS011;36468;44.098;3.078;2023-03-01T15:40:27;11.88;;;8.07;;
50519;SDS011;36468;44.098;3.078;2023-03-01T15:43:05;13.65;;;7.90;;
50519;SDS011;36468;44.098;3.078;2023-03-01T15:45:32;11.70;;;7.60;;
50519;SDS011;36468;44.098;3.078;2023-03-01T15:48:13;12.30;;;8.20;;
50519;SDS011;36468;44.098;3.078;2023-03-01T15:50:40;12.20;;;7.97;;
50519;SDS011;36468;44.098;3.078;2023-03-01T15:53:12;12.07;;;8.43;;
50519;SDS011;36468;44.098;3.078;2023-03-01T15:55:39;13.25;;;7.82;;
50519;SDS011;36468;44.098;3.078;2023-03-01T15:58:06;11.98;;;8.43;;
50519;SDS011;36468;44.098;3.078;2023-03-01T16:00:35;20.13;;;9.30;;
50519;SDS011;36468;44.098;3.078;2023-03-01T16:03:01;13.63;;;8.68;;
50519;SDS011;36468;44.098;3.078;2023-03-01T16:05:29;13.43;;;8.32;;
50519;SDS011;36468;44.098;3.078;2023-03-01T16:07:59;13.13;;;8.15;;
50519;SDS011;36468;44.098;3.078;2023-03-01T16:10:26;13.68;;;8.57;;
50519;SDS011;36468;44.098;3.078;2023-03-01T16:12:52;14.35;;;8.77;;
50519;SDS011;36468;44.098;3.078;2023-03-01T16:15:21;11.02;;;8.18;;
50519;SDS011;36468;44.098;3.078;2023-03-01T16:17:47;10.90;;;8.32;;
50519;SDS011;36468;44.098;3.078;2023-03-01T16:20:13;15.60;;;8.95;;
50519;SDS011;36468;44.098;3.078;2023-03-01T16:22:41;12.68;;;8.77;;
50519;SDS011;36468;44.098;3.078;2023-03-01T16:25:08;13.18;;;8.25;;
50519;SDS011;36468;44.098;3.078;2023-03-01T16:27:35;14.15;;;9.18;;
50519;SDS011;36468;44.098;3.078;2023-03-01T16:30:01;12.88;;;8.63;;
50519;SDS011;36468;44.098;3.078;2023-03-01T16:32:27;12.75;;;8.98;;
50519;SDS011;36468;44.098;3.078;2023-03-01T16:34:53;12.98;;;8.68;;
50519;SDS011;36468;44.098;3.078;2023-03-01T16:37:19;12.55;;;8.35;;
50519;SDS011;36468;44.098;3.078;2023-03-01T16:39:46;12.73;;;9.40;;
50519;SDS011;36468;44.098;3.078;2023-03-01T16:42:14;17.98;;;9.80;;
50519;SDS011;36468;44.098;3.078;2023-03-01T16:44:41;14.65;;;9.13;;
50519;SDS011;36468;44.098;3.078;2023-03-01T16:47:07;14.90;;;9.75;;
50519;SDS011;36468;44.098;3.078;2023-03-01T16:49:33;14.55;;;9.75;;
50519;SDS011;36468;44.098;3.078;2023-03-01T16:51:59;14.35;;;9.98;;
50519;SDS011;36468;44.098;3.078;2023-03-01T16:54:25;15.27;;;9.98;;
50519;SDS011;36468;44.098;3.078;2023-03-01T16:56:51;17.50;;;10.57;;
50519;SDS011;36468;44.098;3.078;2023-03-01T16:59:17;22.85;;;10.55;;
50519;SDS011;36468;44.098;3.078;2023-03-01T17:01:44;18.67;;;10.43;;